createdAt,value
2023-06-05T03:02:38.724Z,8.49
2023-06-05T03:03:41.296Z,8.48
2023-06-05T03:04:44.192Z,8.45
2023-06-05T03:05:46.309Z,8.43
2023-06-05T03:06:54.348Z,8.43
2023-06-05T03:07:56.294Z,8.44
2023-06-05T03:08:59.671Z,8.45
2023-06-05T03:10:02.323Z,8.46
2023-06-05T03:11:06.845Z,8.45
2023-06-05T03:12:09.628Z,8.46
2023-06-05T03:13:12.426Z,8.46
2023-06-05T03:14:14.744Z,8.46
2023-06-05T03:15:19.028Z,8.47
2023-06-05T03:16:24.405Z,8.47
2023-06-05T03:17:29.991Z,8.48
2023-06-05T03:18:33.119Z,8.46
2023-06-05T03:19:37.077Z,8.45
2023-06-05T03:20:39.513Z,8.45
2023-06-05T03:21:44.079Z,8.44
2023-06-05T03:22:46.922Z,8.43
2023-06-05T03:23:50.626Z,8.39
2023-06-05T03:24:52.921Z,8.34
2023-06-05T03:25:56.734Z,8.28
2023-06-05T03:26:59.257Z,8.23
2023-06-05T03:28:02.149Z,8.15
2023-06-05T03:29:04.450Z,8.15
2023-06-05T03:30:09.825Z,8.17
2023-06-05T03:31:17.268Z,8.18
2023-06-05T03:32:23.024Z,8.22
2023-06-05T03:33:25.113Z,8.25
2023-06-05T03:34:30.797Z,8.28
2023-06-05T03:35:36.180Z,8.29
2023-06-05T03:36:41.783Z,8.31
2023-06-05T03:37:46.325Z,8.33
2023-06-05T03:38:49.194Z,8.33
2023-06-05T03:39:51.140Z,8.35
2023-06-05T03:40:54.087Z,8.35
2023-06-05T03:41:56.621Z,8.33
2023-06-05T03:43:02.759Z,8.32
2023-06-05T03:44:09.893Z,8.33
2023-06-05T03:45:13.343Z,8.33
2023-06-05T03:46:19.368Z,8.33
2023-06-05T03:47:23.086Z,8.36
2023-06-05T03:48:25.094Z,8.38
2023-06-05T03:49:29.556Z,8.41
2023-06-05T03:50:34.793Z,8.43
2023-06-05T03:51:37.657Z,8.39
2023-06-05T03:52:42.796Z,8.39
2023-06-05T03:53:45.675Z,8.39
2023-06-05T03:54:48.164Z,8.33
2023-06-05T03:55:54.691Z,8.35
2023-06-05T03:57:01.430Z,8.35
2023-06-05T03:58:04.766Z,8.36
2023-06-05T03:59:10.290Z,8.37
2023-06-05T04:00:16.664Z,8.37
2023-06-05T04:01:28.972Z,8.37
2023-06-05T04:02:31.879Z,8.38
2023-06-05T04:03:38.363Z,8.38
2023-06-05T04:04:41.473Z,8.40
2023-06-05T04:05:44.569Z,8.41
2023-06-05T04:06:47.866Z,8.41
2023-06-05T04:07:49.943Z,8.42
2023-06-05T04:08:53.264Z,8.42
2023-06-05T04:09:55.125Z,8.39
2023-06-05T04:10:57.870Z,8.38
2023-06-05T04:11:59.901Z,8.36
2023-06-05T04:13:04.005Z,8.37
2023-06-05T04:14:08.804Z,8.39
2023-06-05T04:15:12.583Z,8.39
2023-06-05T04:16:15.688Z,8.40
2023-06-05T04:17:20.158Z,8.41
2023-06-05T04:18:22.067Z,8.43
2023-06-05T04:19:26.608Z,8.43
2023-06-05T04:20:31.152Z,8.43
2023-06-05T04:21:37.027Z,8.46
2023-06-05T04:22:38.873Z,8.47
2023-06-05T04:23:41.673Z,8.49
2023-06-05T04:24:43.516Z,8.50
2023-06-05T04:25:50.046Z,8.53
2023-06-05T04:26:53.020Z,8.55
2023-06-05T04:27:57.236Z,8.59
2023-06-05T04:28:59.107Z,8.61
2023-06-05T04:30:02.309Z,8.62
2023-06-05T04:31:04.228Z,8.61
2023-06-05T04:32:08.521Z,8.63
2023-06-05T04:33:10.383Z,8.66
2023-06-05T04:34:15.558Z,8.70
2023-06-05T04:35:18.535Z,8.73
2023-06-05T04:36:20.381Z,8.77
2023-06-05T04:37:24.720Z,8.81
2023-06-05T04:38:29.131Z,8.83
2023-06-05T04:39:32.043Z,8.87
2023-06-05T04:40:34.734Z,8.88
2023-06-05T04:41:40.298Z,8.88
2023-06-05T04:42:42.346Z,8.89
2023-06-05T04:43:45.354Z,8.91
2023-06-05T04:44:57.912Z,8.92
2023-06-05T04:46:01.794Z,8.93
2023-06-05T04:47:07.289Z,8.94
2023-06-05T04:48:09.273Z,8.99
2023-06-05T04:49:12.364Z,9.03
2023-06-05T04:50:25.379Z,9.09
2023-06-05T04:51:30.035Z,9.14
2023-06-05T04:52:36.129Z,9.19
2023-06-05T04:53:38.929Z,9.23
2023-06-05T04:54:40.944Z,9.28
2023-06-05T04:55:45.350Z,9.31
2023-06-05T04:56:47.520Z,9.34
2023-06-05T04:57:50.747Z,9.38
2023-06-05T04:58:54.630Z,9.44
2023-06-05T04:59:58.938Z,9.48
2023-06-05T06:43:00.568Z,15.00
2023-06-05T06:44:17.716Z,15.10
2023-06-05T06:45:20.646Z,15.16
2023-06-05T06:46:22.506Z,15.24
2023-06-05T06:47:27.028Z,15.31
2023-06-05T06:48:33.645Z,15.39
2023-06-05T06:49:36.503Z,15.47
2023-06-05T06:50:39.450Z,15.53
2023-06-05T06:51:42.592Z,15.60
2023-06-05T06:52:44.457Z,15.64
2023-06-05T06:53:47.188Z,15.67
2023-06-05T06:54:49.112Z,15.75
2023-06-05T06:55:51.843Z,15.78
2023-06-05T06:56:54.820Z,15.82
2023-06-05T06:57:57.687Z,15.88
2023-06-05T06:58:59.483Z,15.93
2023-06-05T07:00:13.481Z,15.97
2023-06-05T07:01:16.382Z,16.02
2023-06-05T07:02:21.127Z,16.05
2023-06-05T07:03:25.333Z,16.13
2023-06-05T07:04:28.590Z,16.18
2023-06-05T07:05:31.350Z,16.26
2023-06-05T07:06:33.422Z,16.33
2023-06-05T07:07:36.590Z,16.42
2023-06-05T07:08:38.718Z,16.49
2023-06-05T07:09:42.284Z,16.54
2023-06-05T07:10:45.075Z,16.60
2023-06-05T07:11:48.033Z,16.67
2023-06-05T07:12:50.982Z,16.75
2023-06-05T07:13:54.124Z,16.81
2023-06-05T07:14:56.997Z,16.86
2023-06-05T07:16:01.129Z,16.93
2023-06-05T07:17:04.148Z,16.98
2023-06-05T07:18:07.372Z,17.04
2023-06-05T07:19:09.304Z,17.08
2023-06-05T07:20:13.182Z,17.16
2023-06-05T07:21:15.020Z,17.22
2023-06-05T07:22:17.914Z,17.25
2023-06-05T07:23:21.528Z,17.32
2023-06-05T07:24:26.288Z,17.35
2023-06-05T07:25:29.416Z,17.42
2023-06-05T07:26:31.352Z,17.46
2023-06-05T07:27:34.104Z,17.50
2023-06-05T07:28:36.350Z,17.55
2023-06-05T07:29:39.504Z,17.66
2023-06-05T07:30:44.662Z,17.74
2023-06-05T07:31:49.366Z,17.76
2023-06-05T07:32:52.402Z,17.83
2023-06-05T07:33:54.300Z,17.88
2023-06-05T07:34:58.049Z,17.99
2023-06-05T07:36:00.400Z,18.08
2023-06-05T07:37:04.092Z,18.17
2023-06-05T07:38:06.100Z,18.20
2023-06-05T07:39:10.987Z,18.27
2023-06-05T07:40:12.993Z,18.39
2023-06-05T07:41:15.945Z,18.43
2023-06-05T07:42:18.768Z,18.46
2023-06-05T07:43:20.629Z,18.49
2023-06-05T07:44:23.959Z,18.54
2023-06-05T07:45:26.012Z,18.58
2023-06-05T07:46:28.978Z,18.63
2023-06-05T07:47:33.119Z,18.68
2023-06-05T07:48:34.944Z,18.70
2023-06-05T07:49:37.681Z,18.79
2023-06-05T07:50:39.553Z,18.86
2023-06-05T07:51:42.371Z,18.92
2023-06-05T07:52:44.186Z,19.01
2023-06-05T07:53:47.166Z,19.02
2023-06-05T07:54:49.023Z,19.06
2023-06-05T07:55:53.098Z,19.10
2023-06-05T07:56:55.344Z,19.13
2023-06-05T07:57:58.244Z,19.14
2023-06-05T07:59:00.658Z,19.16
2023-06-05T08:00:06.352Z,19.19
2023-06-05T08:01:16.834Z,19.18
2023-06-05T08:02:20.090Z,19.23
2023-06-05T08:03:23.690Z,19.28
2023-06-05T08:04:28.907Z,19.38
2023-06-05T08:05:31.018Z,19.40
2023-06-05T08:06:33.992Z,19.44
2023-06-05T08:07:36.733Z,19.52
2023-06-05T08:08:38.695Z,19.62
2023-06-05T08:09:42.554Z,19.67
2023-06-05T08:10:45.229Z,19.72
2023-06-05T08:11:51.166Z,19.73
2023-06-05T08:12:53.406Z,19.81
2023-06-05T08:13:56.582Z,19.87
2023-06-05T08:14:59.499Z,19.85
2023-06-05T08:16:01.318Z,19.86
2023-06-05T08:17:05.682Z,19.91
2023-06-05T08:18:07.539Z,19.96
2023-06-05T08:19:11.630Z,20.01
2023-06-05T08:20:15.022Z,20.07
2023-06-05T08:21:17.998Z,20.14
2023-06-05T08:22:21.129Z,20.23
2023-06-05T08:23:23.939Z,20.31
2023-06-05T08:24:28.085Z,20.34
2023-06-05T08:25:29.960Z,20.39
2023-06-05T08:26:32.885Z,20.42
2023-06-05T08:27:34.735Z,20.45
2023-06-05T08:28:37.741Z,20.49
2023-06-05T08:29:40.515Z,20.54
2023-06-05T08:30:42.403Z,20.50
2023-06-05T08:31:45.571Z,20.57
2023-06-05T08:32:47.678Z,20.52
2023-06-05T08:33:50.541Z,20.55
2023-06-05T08:34:54.699Z,20.54
2023-06-05T08:35:56.581Z,20.54
2023-06-05T08:37:00.335Z,20.58
2023-06-05T08:38:03.913Z,20.63
2023-06-05T08:39:06.601Z,20.68
2023-06-05T08:40:11.609Z,20.76
2023-06-05T08:41:17.461Z,20.84
2023-06-05T08:42:21.556Z,20.91
2023-06-05T08:43:24.464Z,20.98
2023-06-05T08:44:26.527Z,21.07
2023-06-05T08:45:32.433Z,21.10
2023-06-05T08:46:52.998Z,21.17
2023-06-05T08:47:58.891Z,21.19
2023-06-05T08:49:09.839Z,21.25
2023-06-05T08:50:13.835Z,21.26
2023-06-05T08:51:18.631Z,21.29
2023-06-05T08:52:24.374Z,21.38
2023-06-05T08:53:33.387Z,21.58
2023-06-05T08:54:38.843Z,21.74
2023-06-05T08:55:42.110Z,21.89
2023-06-05T08:56:44.719Z,21.90
2023-06-05T08:57:49.705Z,21.94
2023-06-05T08:58:53.774Z,21.96
2023-06-05T08:59:58.453Z,22.01
2023-06-05T09:01:01.315Z,22.04
2023-06-05T09:02:04.144Z,22.03
2023-06-05T09:03:07.120Z,22.07
2023-06-05T09:04:12.877Z,22.13
2023-06-05T09:05:16.704Z,22.15
2023-06-05T09:06:19.510Z,22.19
2023-06-05T09:07:21.471Z,22.30
2023-06-05T09:08:32.746Z,22.29
2023-06-05T09:09:35.344Z,22.31
2023-06-05T09:10:38.188Z,22.36
2023-06-05T09:11:40.753Z,22.38
2023-06-05T09:12:55.728Z,22.34
2023-06-05T09:14:02.554Z,22.37
2023-06-05T09:15:23.882Z,22.40
2023-06-05T09:16:35.755Z,22.43
2023-06-05T09:17:38.565Z,22.40
2023-06-05T09:18:52.690Z,22.47
2023-06-05T09:19:55.485Z,22.51
2023-06-05T09:21:14.046Z,22.58
2023-06-05T09:22:18.168Z,22.64
2023-06-05T09:23:26.638Z,22.69
2023-06-05T09:24:31.769Z,22.73
2023-06-05T09:25:49.067Z,22.71
2023-06-05T09:26:55.188Z,22.70
2023-06-05T09:28:07.730Z,22.69
2023-06-05T09:29:11.573Z,22.66
2023-06-05T09:30:14.402Z,22.59
2023-06-05T09:31:17.930Z,22.62
2023-06-05T09:32:22.169Z,22.71
2023-06-05T09:33:24.618Z,22.79
2023-06-05T09:34:29.503Z,22.86
2023-06-05T09:35:31.386Z,22.96
2023-06-05T09:36:36.201Z,23.01
2023-06-05T09:37:38.677Z,23.01
2023-06-05T09:38:43.045Z,23.04
2023-06-05T09:39:47.025Z,23.03
2023-06-05T09:40:48.851Z,23.03
2023-06-05T09:41:53.082Z,23.09
2023-06-05T09:42:55.917Z,23.14
2023-06-05T09:43:58.139Z,23.16
2023-06-05T09:45:01.835Z,23.17
2023-06-05T09:46:09.329Z,23.22
2023-06-05T09:47:14.338Z,23.28
2023-06-05T09:48:16.846Z,23.35
2023-06-05T09:49:20.062Z,23.42
2023-06-05T09:50:22.939Z,23.41
2023-06-05T09:51:25.830Z,23.37
2023-06-05T09:52:30.252Z,23.41
2023-06-05T09:53:33.292Z,23.42
2023-06-05T09:54:39.561Z,23.43
2023-06-05T09:55:42.046Z,23.38
2023-06-05T09:56:49.812Z,23.39
2023-06-05T09:57:52.752Z,23.46
2023-06-05T09:58:56.169Z,23.57
2023-06-05T10:00:04.562Z,23.70
2023-06-05T10:01:08.493Z,23.83
2023-06-05T10:02:17.025Z,23.85
2023-06-05T10:03:21.924Z,23.86
2023-06-05T10:04:27.944Z,23.92
2023-06-05T10:05:30.220Z,23.99
2023-06-05T10:06:35.523Z,24.04
2023-06-05T10:07:40.435Z,24.00
2023-06-05T10:08:42.647Z,23.99
2023-06-05T10:09:46.680Z,24.12
2023-06-05T10:10:49.483Z,24.25
2023-06-05T10:11:52.846Z,24.33
2023-06-05T10:12:57.715Z,24.42
2023-06-05T10:14:01.929Z,24.46
2023-06-05T10:15:06.294Z,24.51
2023-06-05T10:16:14.524Z,24.52
2023-06-05T10:17:25.698Z,24.45
2023-06-05T10:18:28.068Z,24.36
2023-06-05T10:19:31.992Z,24.31
2023-06-05T10:20:36.269Z,24.28
2023-06-05T10:21:39.249Z,24.39
2023-06-05T10:22:46.196Z,24.48
2023-06-05T10:23:50.906Z,24.53
2023-06-05T10:24:58.145Z,24.56
2023-06-05T10:26:05.595Z,24.63
2023-06-05T10:27:30.314Z,24.42
2023-06-05T10:28:46.242Z,24.34
2023-06-05T10:30:08.244Z,24.30
2023-06-05T10:31:23.292Z,24.32
2023-06-05T10:32:37.816Z,24.40
2023-06-05T10:33:57.176Z,24.36
2023-06-05T10:35:11.059Z,24.41
2023-06-05T10:36:33.254Z,24.49
2023-06-05T10:37:50.151Z,24.65
2023-06-05T10:38:53.160Z,24.83
2023-06-05T10:39:57.200Z,24.91
2023-06-05T10:41:01.744Z,24.99
2023-06-05T10:42:03.943Z,25.06
2023-06-05T10:43:26.105Z,25.09
2023-06-05T10:44:40.488Z,25.01
2023-06-05T10:45:46.147Z,24.98
2023-06-05T10:46:55.532Z,24.90
2023-06-05T10:47:57.449Z,24.89
2023-06-05T10:49:13.714Z,24.91
2023-06-05T10:50:26.354Z,25.02
2023-06-05T10:51:39.168Z,25.10
2023-06-05T10:52:42.023Z,25.14
2023-06-05T10:53:49.602Z,25.14
2023-06-05T10:54:57.106Z,25.14
2023-06-05T10:55:58.940Z,25.19
2023-06-05T10:57:04.310Z,25.30
2023-06-05T10:58:09.411Z,25.34
2023-06-05T10:59:17.027Z,25.49
2023-06-05T11:00:20.193Z,25.61
2023-06-05T11:01:22.393Z,25.69
2023-06-05T11:02:26.615Z,25.77
2023-06-05T11:03:55.549Z,25.88
2023-06-05T11:05:05.515Z,26.01
2023-06-05T11:06:14.802Z,26.15
2023-06-05T11:07:17.926Z,26.31
2023-06-05T11:08:21.027Z,26.37
2023-06-05T11:09:24.317Z,26.44
2023-06-05T11:10:27.192Z,26.46
2023-06-05T11:11:29.102Z,26.51
2023-06-05T11:12:55.931Z,26.56
2023-06-05T11:13:59.530Z,26.61
2023-06-05T11:15:01.602Z,26.66
2023-06-05T11:16:04.587Z,26.70
2023-06-05T11:17:28.440Z,26.70
2023-06-05T11:18:35.901Z,26.66
2023-06-05T11:19:39.521Z,26.58
2023-06-05T11:20:51.558Z,26.56
2023-06-05T11:22:04.081Z,26.58
2023-06-05T11:23:10.519Z,26.53
2023-06-05T11:24:16.553Z,26.57
2023-06-05T11:25:28.982Z,26.68
2023-06-05T11:26:43.375Z,26.75
2023-06-05T11:27:46.499Z,26.87
2023-06-05T11:28:49.410Z,26.95
2023-06-05T11:29:54.225Z,27.00
2023-06-05T11:30:57.818Z,27.07
2023-06-05T11:32:01.189Z,27.02
2023-06-05T11:33:07.861Z,26.91
2023-06-05T11:34:14.295Z,26.90
2023-06-05T11:35:17.211Z,26.82
2023-06-05T11:36:25.644Z,26.62
2023-06-05T11:37:27.799Z,26.45
2023-06-05T11:38:30.951Z,26.44
2023-06-05T11:39:44.723Z,26.56
2023-06-05T11:40:47.832Z,26.73
2023-06-05T11:41:52.342Z,26.90
2023-06-05T11:43:03.980Z,27.00
2023-06-05T11:44:06.808Z,27.06
2023-06-05T11:45:12.573Z,27.10
2023-06-05T11:46:14.689Z,27.11
2023-06-05T11:47:25.104Z,27.24
2023-06-05T11:48:27.461Z,27.30
2023-06-05T11:49:31.117Z,27.35
2023-06-05T11:50:33.198Z,27.29
2023-06-05T11:51:36.682Z,27.14
2023-06-05T11:52:39.356Z,27.07
2023-06-05T11:53:49.456Z,27.04
2023-06-05T11:55:06.494Z,26.97
2023-06-05T11:56:17.596Z,26.88
2023-06-05T11:57:33.789Z,26.90
2023-06-05T11:58:43.741Z,26.96
2023-06-05T11:59:47.362Z,27.12
2023-06-05T12:00:49.278Z,27.27
2023-06-05T12:01:55.283Z,27.39
2023-06-05T12:02:57.859Z,27.43
2023-06-05T12:04:05.977Z,27.31
2023-06-05T12:05:08.891Z,27.30
2023-06-05T12:06:14.433Z,27.32
2023-06-05T12:07:30.832Z,27.30
2023-06-05T12:08:34.771Z,27.27
2023-06-05T12:09:37.628Z,27.27
2023-06-05T12:10:41.598Z,27.21
2023-06-05T12:11:46.511Z,27.17
2023-06-05T12:12:52.118Z,27.18
2023-06-05T12:13:56.393Z,27.20
2023-06-05T12:14:59.188Z,27.27
2023-06-05T12:16:01.591Z,27.30
2023-06-05T12:17:11.411Z,27.33
2023-06-05T12:18:13.371Z,27.27
2023-06-05T12:19:19.395Z,27.29
2023-06-05T12:20:22.609Z,27.34
2023-06-05T12:21:27.404Z,27.41
2023-06-05T12:22:36.509Z,27.53
2023-06-05T12:23:38.630Z,27.66
2023-06-05T12:24:43.003Z,27.61
2023-06-05T12:25:45.086Z,27.59
2023-06-05T12:26:55.934Z,27.70
2023-06-05T12:27:58.968Z,27.74
2023-06-05T12:29:05.408Z,27.79
2023-06-05T12:30:10.648Z,27.75
2023-06-05T12:31:31.206Z,27.67
2023-06-05T12:32:34.230Z,27.67
2023-06-05T12:33:46.987Z,27.69
2023-06-05T12:35:00.085Z,27.75
2023-06-05T12:36:07.342Z,27.82
2023-06-05T12:37:12.136Z,27.91
2023-06-05T12:38:15.826Z,27.88
2023-06-05T12:39:18.831Z,27.77
2023-06-05T12:40:34.761Z,27.52
2023-06-05T12:41:39.555Z,27.32
2023-06-05T12:42:45.593Z,27.17
2023-06-05T12:44:01.068Z,27.06
2023-06-05T12:45:04.041Z,26.88
2023-06-05T12:46:09.288Z,26.79
2023-06-05T12:47:12.057Z,26.84
2023-06-05T12:48:14.888Z,26.95
2023-06-05T12:49:17.609Z,27.06
2023-06-05T12:50:20.409Z,27.12
2023-06-05T12:51:23.395Z,27.19
2023-06-05T12:52:27.612Z,27.18
2023-06-05T12:53:29.578Z,27.25
2023-06-05T12:54:32.317Z,27.33
2023-06-05T12:55:35.118Z,27.41
2023-06-05T12:56:37.603Z,27.52
2023-06-05T12:57:40.519Z,27.65
2023-06-05T12:58:43.739Z,27.67
2023-06-05T12:59:46.479Z,27.78
2023-06-05T13:00:55.766Z,27.83
2023-06-05T13:01:58.658Z,27.88
2023-06-05T13:03:00.840Z,28.03
2023-06-05T13:04:03.796Z,28.15
2023-06-05T13:05:07.497Z,28.13
2023-06-05T13:06:10.731Z,28.05
2023-06-05T13:07:13.762Z,27.94
2023-06-05T13:08:15.651Z,27.91
2023-06-05T13:09:18.395Z,27.88
2023-06-05T13:10:20.296Z,27.93
2023-06-05T13:11:23.017Z,27.83
2023-06-05T13:12:24.846Z,27.84
2023-06-05T13:13:27.709Z,27.67
2023-06-05T13:14:32.298Z,27.55
2023-06-05T13:15:34.190Z,27.48
2023-06-05T13:16:37.041Z,27.55
2023-06-05T13:17:39.556Z,27.54
2023-06-05T13:18:42.467Z,27.56
2023-06-05T13:19:44.363Z,27.51
2023-06-05T13:20:47.357Z,27.48
2023-06-05T13:21:50.575Z,27.52
2023-06-05T13:22:52.705Z,27.49
2023-06-05T13:23:55.657Z,27.60
2023-06-05T13:24:57.542Z,27.68
2023-06-05T13:26:01.057Z,27.80
2023-06-05T13:27:02.921Z,27.93
2023-06-05T13:28:05.837Z,28.03
2023-06-05T13:29:09.174Z,28.09
2023-06-05T13:30:13.410Z,28.11
2023-06-05T13:31:15.354Z,28.05
2023-06-05T13:32:18.357Z,28.09
2023-06-05T13:33:21.535Z,28.01
2023-06-05T13:34:23.359Z,27.85
2023-06-05T13:35:26.167Z,27.81
2023-06-05T13:37:13.633Z,27.84
2023-06-05T13:38:17.769Z,28.00
2023-06-05T13:39:19.592Z,28.09
2023-06-05T13:40:22.366Z,28.11
2023-06-05T13:41:24.432Z,28.12
2023-06-05T13:42:27.301Z,28.18
2023-06-05T13:43:30.173Z,28.20
2023-06-05T13:44:32.267Z,28.17
2023-06-05T13:45:36.379Z,28.15
2023-06-05T13:46:38.464Z,28.16
2023-06-05T13:47:41.700Z,28.22
2023-06-05T13:48:43.478Z,28.16
2023-06-05T13:49:47.036Z,28.16
2023-06-05T13:50:49.834Z,28.24
2023-06-05T13:51:51.665Z,28.31
2023-06-05T13:52:58.485Z,28.37
2023-06-05T13:54:00.404Z,28.29
2023-06-05T13:55:03.093Z,28.35
2023-06-05T13:56:06.674Z,28.32
2023-06-05T13:57:08.747Z,28.24
2023-06-05T13:58:12.564Z,28.07
2023-06-05T13:59:14.704Z,27.94
2023-06-05T14:00:17.914Z,27.75
2023-06-05T14:01:22.405Z,27.67
2023-06-05T14:02:24.242Z,27.64
2023-06-05T14:03:27.425Z,27.65
2023-06-05T14:04:29.903Z,27.56
2023-06-05T14:05:33.426Z,27.63
2023-06-05T14:06:38.237Z,27.76
2023-06-05T14:08:50.702Z,28.09
2023-06-05T14:09:52.614Z,28.08
2023-06-05T14:11:07.132Z,28.11
2023-06-05T14:12:10.985Z,28.14
2023-06-05T14:13:13.758Z,28.18
2023-06-05T14:14:16.518Z,28.23
2023-06-05T14:16:30.639Z,28.25
2023-06-05T14:17:33.089Z,28.30
2023-06-05T14:18:36.080Z,28.36
2023-06-05T14:19:37.978Z,28.39
2023-06-05T14:20:40.893Z,28.43
2023-06-05T14:21:43.395Z,28.52
2023-06-05T14:22:46.367Z,28.41
2023-06-05T14:24:46.519Z,28.30
2023-06-05T14:25:50.026Z,28.19
2023-06-05T14:26:54.656Z,28.25
2023-06-05T14:27:57.916Z,28.28
2023-06-05T14:28:59.781Z,28.28
2023-06-05T14:30:02.643Z,28.31
2023-06-05T14:31:06.471Z,28.32
2023-06-05T14:32:32.117Z,28.43
2023-06-05T14:33:35.212Z,28.52
2023-06-05T14:34:37.250Z,28.46
2023-06-05T14:35:40.535Z,28.53
2023-06-05T14:36:42.489Z,28.54
2023-06-05T14:37:45.636Z,28.43
2023-06-05T14:38:47.495Z,28.40
2023-06-05T14:39:52.057Z,28.20
2023-06-05T14:40:54.884Z,28.13
2023-06-05T14:41:57.717Z,28.17
2023-06-05T14:43:00.933Z,28.24
2023-06-05T14:44:13.902Z,28.30
2023-06-05T14:45:25.027Z,28.30
2023-06-05T14:46:27.063Z,28.35
2023-06-05T14:47:31.720Z,28.24
2023-06-05T14:48:33.600Z,28.35
2023-06-05T14:49:36.462Z,28.37
2023-06-05T14:50:38.299Z,28.28
2023-06-05T14:51:41.590Z,28.17
2023-06-05T14:52:44.337Z,28.18
2023-06-05T14:53:46.346Z,28.25
2023-06-05T14:55:00.601Z,28.38
2023-06-05T14:56:08.263Z,28.39
2023-06-05T14:57:11.430Z,28.50
2023-06-05T14:58:13.241Z,28.58
2023-06-05T15:00:22.842Z,28.63
2023-06-05T15:01:24.728Z,28.57
2023-06-05T15:02:27.483Z,28.41
2023-06-05T15:03:30.952Z,28.30
2023-06-05T15:04:34.907Z,28.18
2023-06-05T15:05:36.818Z,28.15
2023-06-05T15:06:39.652Z,28.19
2023-06-05T15:07:44.148Z,28.21
2023-06-05T15:08:45.988Z,28.26
2023-06-05T15:09:49.413Z,28.29
2023-06-05T15:10:51.643Z,28.25
2023-06-05T15:11:56.659Z,28.14
2023-06-05T15:12:58.760Z,28.14
2023-06-05T15:14:01.652Z,28.07
2023-06-05T15:16:09.885Z,27.98
2023-06-05T15:17:12.934Z,27.98
2023-06-05T15:18:22.011Z,28.02
2023-06-05T15:19:26.332Z,28.06
2023-06-05T15:20:29.230Z,28.08
2023-06-05T15:21:32.137Z,28.15
2023-06-05T15:22:34.501Z,28.19
2023-06-05T15:23:39.942Z,28.20
2023-06-05T15:24:41.922Z,28.18
2023-06-05T15:25:44.774Z,28.31
2023-06-05T15:26:46.816Z,28.40
2023-06-05T15:27:50.393Z,28.50
2023-06-05T15:28:53.279Z,28.38
2023-06-05T15:29:56.182Z,28.36
2023-06-05T15:30:57.994Z,28.38
2023-06-05T15:32:15.274Z,28.43
2023-06-05T15:33:22.168Z,28.36
2023-06-05T15:34:26.338Z,28.29
2023-06-05T15:35:28.633Z,28.21
2023-06-05T15:36:31.483Z,28.23
2023-06-05T15:37:34.216Z,28.25
2023-06-05T15:38:36.099Z,28.22
2023-06-05T15:39:38.813Z,28.27
2023-06-05T15:40:40.670Z,28.15
2023-06-05T15:41:46.113Z,28.10
2023-06-05T15:43:04.137Z,28.15
2023-06-05T15:44:08.918Z,28.24
2023-06-05T15:45:13.330Z,28.36
2023-06-05T15:46:16.509Z,28.49
2023-06-05T15:47:19.393Z,28.64
2023-06-05T15:48:22.877Z,28.70
2023-06-05T15:49:26.950Z,28.72
2023-06-05T15:50:28.809Z,28.81
2023-06-05T15:51:31.592Z,28.83
2023-06-05T15:52:34.309Z,28.72
2023-06-05T15:53:47.058Z,28.54
2023-06-05T15:55:00.364Z,28.44
2023-06-05T15:56:04.221Z,28.40
2023-06-05T15:57:08.631Z,28.41
2023-06-05T15:58:12.484Z,28.38
2023-06-05T15:59:14.361Z,28.29
2023-06-05T16:00:18.066Z,28.26
2023-06-05T16:01:20.952Z,28.19
2023-06-05T16:02:22.871Z,28.20
2023-06-05T16:03:25.807Z,28.27
2023-06-05T16:04:33.494Z,28.25
2023-06-05T16:05:36.491Z,28.31
2023-06-05T16:06:38.558Z,28.41
2023-06-05T16:07:41.497Z,28.46
2023-06-05T16:08:44.412Z,28.56
2023-06-05T16:09:47.461Z,28.73
2023-06-05T16:10:50.272Z,28.89
2023-06-05T16:11:52.147Z,29.01
2023-06-05T16:12:54.974Z,29.13
2023-06-05T16:13:57.688Z,29.26
2023-06-05T16:14:59.618Z,29.02
2023-06-05T16:16:02.482Z,29.00
2023-06-05T16:17:05.776Z,28.96
2023-06-05T16:18:08.546Z,28.93
2023-06-05T16:19:10.809Z,28.99
2023-06-05T16:20:15.011Z,29.08
2023-06-05T16:21:17.014Z,29.16
2023-06-05T16:22:20.253Z,29.18
2023-06-05T16:23:23.054Z,29.14
2023-06-05T16:24:24.921Z,29.13
2023-06-05T16:25:27.944Z,29.08
2023-06-05T16:26:29.708Z,29.16
2023-06-05T16:27:32.586Z,29.32
2023-06-05T16:28:34.419Z,29.33
2023-06-05T16:29:37.096Z,29.24
2023-06-05T16:30:38.847Z,29.14
2023-06-05T16:31:42.618Z,29.18
2023-06-05T16:32:44.467Z,29.25
2023-06-05T16:33:47.257Z,29.34
2023-06-05T16:34:49.407Z,29.43
2023-06-05T16:35:53.469Z,29.45
2023-06-05T16:36:55.285Z,29.49
2023-06-05T16:37:58.199Z,29.54
2023-06-05T16:39:00.003Z,29.51
2023-06-05T16:40:02.801Z,29.41
2023-06-05T16:41:04.793Z,29.16
2023-06-05T16:42:08.367Z,29.12
2023-06-05T16:43:11.239Z,29.16
2023-06-05T16:44:14.036Z,29.21
2023-06-05T16:45:17.005Z,29.29
2023-06-05T16:46:21.173Z,29.40
2023-06-05T16:47:24.520Z,29.46
2023-06-05T16:48:26.592Z,29.53
2023-06-05T16:49:29.724Z,29.58
2023-06-05T16:50:31.786Z,29.58
2023-06-05T16:51:35.775Z,29.54
2023-06-05T16:52:38.484Z,29.54
2023-06-05T16:53:40.593Z,29.40
2023-06-05T16:54:43.430Z,29.35
2023-06-05T16:55:46.295Z,29.35
2023-06-05T16:56:51.331Z,29.30
2023-06-05T16:57:53.237Z,29.31
2023-06-05T16:58:56.909Z,29.27
2023-06-05T16:59:58.785Z,29.16
2023-06-05T17:01:02.020Z,29.14
2023-06-05T17:02:05.490Z,29.21
2023-06-05T17:03:07.737Z,29.31
2023-06-05T17:04:10.993Z,29.31
2023-06-05T17:05:14.280Z,29.25
2023-06-05T17:06:17.035Z,29.25
2023-06-05T17:07:21.536Z,29.19
2023-06-05T17:08:23.845Z,29.08
2023-06-05T17:09:28.404Z,29.01
2023-06-05T17:10:33.926Z,28.98
2023-06-05T17:11:35.966Z,28.99
2023-06-05T17:12:41.823Z,29.00
2023-06-05T17:13:44.751Z,29.03
2023-06-05T17:14:46.636Z,29.03
2023-06-05T17:15:51.952Z,29.06
2023-06-05T17:16:54.805Z,28.89
2023-06-05T17:17:57.062Z,28.87
2023-06-05T17:18:59.985Z,28.91
2023-06-05T17:20:04.173Z,28.71
2023-06-05T17:21:06.379Z,28.68
2023-06-05T17:22:09.100Z,28.69
2023-06-05T17:23:15.271Z,28.69
2023-06-05T17:24:18.076Z,28.61
2023-06-05T17:25:20.029Z,28.61
2023-06-05T17:26:25.550Z,28.66
2023-06-05T17:27:28.278Z,28.64
2023-06-05T17:28:30.210Z,28.69
2023-06-05T17:29:33.011Z,28.69
2023-06-05T17:30:34.880Z,28.78
2023-06-05T17:31:37.744Z,28.79
2023-06-05T17:32:39.663Z,28.84
2023-06-05T17:33:43.177Z,28.86
2023-06-05T17:34:45.052Z,28.84
2023-06-05T17:35:47.984Z,28.82
2023-06-05T17:36:50.806Z,28.71
2023-06-05T17:37:52.655Z,28.63
2023-06-05T17:38:57.073Z,28.58
2023-06-05T17:39:59.866Z,28.52
2023-06-05T17:41:04.331Z,28.43
2023-06-05T17:42:08.295Z,28.28
2023-06-05T17:43:10.158Z,28.15
2023-06-05T17:44:14.837Z,28.02
2023-06-05T17:45:21.125Z,27.86
2023-06-05T17:46:24.196Z,27.69
2023-06-05T17:47:26.272Z,27.65
2023-06-05T17:48:29.178Z,27.43
2023-06-05T17:49:32.052Z,27.27
2023-06-05T17:51:09.397Z,27.16
2023-06-05T17:52:11.597Z,27.07
2023-06-05T17:53:14.361Z,27.06
2023-06-05T17:54:19.600Z,27.04
2023-06-05T17:55:23.543Z,27.00
2023-06-05T17:56:26.957Z,26.99
2023-06-05T17:57:28.856Z,26.96
2023-06-05T17:58:31.635Z,26.89
2023-06-05T17:59:33.521Z,26.86
2023-06-05T18:00:37.779Z,26.79
2023-06-05T18:01:40.079Z,26.64
2023-06-05T18:02:45.653Z,26.51
2023-06-05T18:03:51.073Z,26.40
2023-06-05T18:04:53.210Z,26.32
2023-06-05T18:05:55.966Z,26.15
2023-06-05T18:06:58.761Z,26.06
2023-06-05T18:08:00.802Z,25.95
2023-06-05T18:09:03.627Z,25.88
2023-06-05T18:10:07.649Z,25.85
2023-06-05T18:11:10.800Z,25.73
2023-06-05T18:12:13.017Z,25.66
2023-06-05T18:13:16.084Z,25.61
2023-06-05T18:14:19.008Z,25.52
2023-06-05T18:15:20.939Z,25.41
2023-06-05T18:16:24.082Z,25.30
2023-06-05T18:17:26.872Z,25.18
2023-06-05T18:18:29.680Z,25.07
2023-06-05T18:19:31.586Z,24.93
2023-06-05T18:20:34.357Z,24.85
2023-06-05T18:21:38.338Z,24.81
2023-06-05T18:22:41.102Z,24.77
2023-06-05T18:23:43.124Z,24.71
2023-06-05T18:24:46.058Z,24.68
2023-06-05T18:25:50.192Z,24.65
2023-06-05T18:26:52.215Z,24.57
2023-06-05T18:27:55.519Z,24.52
2023-06-05T18:28:58.290Z,24.46
2023-06-05T18:30:02.466Z,24.36
2023-06-05T18:31:05.343Z,24.31
2023-06-05T18:32:08.626Z,24.23
2023-06-05T18:33:13.002Z,24.14
2023-06-05T18:34:14.793Z,24.04
2023-06-05T18:35:17.903Z,23.95
2023-06-05T18:36:19.754Z,23.91
2023-06-05T18:37:22.450Z,23.85
2023-06-05T18:38:25.290Z,23.79
2023-06-05T18:39:28.126Z,23.69
2023-06-05T18:40:29.953Z,23.53
2023-06-05T18:41:34.084Z,23.47
2023-06-05T18:42:35.877Z,23.41
2023-06-05T18:43:39.308Z,23.33
2023-06-05T18:44:41.242Z,23.24